Time;durP1;ratioP1;P1;durP2;ratioP2;P2;SDS_P1;SDS_P2;PMS_P1;PMS_P2;Temp;Humidity;BMP_temperature;BMP_pressure;BME280_temperature;BME280_humidity;BME280_pressure;Samples;Min_cycle;Max_cycle;Signal;HPM_P1;HPM_P2
2022/07/22 00:01:37;;;;;;;7.60;4.13;;;27.10;61.70;;;;;;5022409;28;20132;-59
2022/07/22 00:04:03;;;;;;;6.55;3.95;;;27.10;61.70;;;;;;5025152;28;20536;-60
2022/07/22 00:06:28;;;;;;;4.95;3.65;;;27.00;61.70;;;;;;5022790;28;20037;-60
2022/07/22 00:08:54;;;;;;;13.85;3.85;;;26.90;61.70;;;;;;5022655;28;20121;-60
2022/07/22 00:11:20;;;;;;;6.43;3.75;;;26.90;61.80;;;;;;5023261;28;20040;-60
2022/07/22 00:13:45;;;;;;;7.40;3.97;;;26.90;61.90;;;;;;5024820;28;20493;-60
2022/07/22 00:16:11;;;;;;;10.40;3.80;;;26.90;62.00;;;;;;5022937;28;20022;-60
2022/07/22 00:18:37;;;;;;;8.05;3.92;;;26.80;62.00;;;;;;5025066;28;20033;-60
2022/07/22 00:21:02;;;;;;;9.55;4.03;;;26.80;62.00;;;;;;5024535;28;20602;-60
2022/07/22 00:23:28;;;;;;;7.35;3.95;;;26.80;62.00;;;;;;5023940;28;20025;-60
2022/07/22 00:25:53;;;;;;;7.28;3.50;;;26.80;62.20;;;;;;5022198;28;20044;-60
2022/07/22 00:28:19;;;;;;;6.85;3.97;;;26.80;62.90;;;;;;5022119;28;20398;-59
2022/07/22 00:30:45;;;;;;;5.25;3.60;;;26.80;62.30;;;;;;5022562;28;20120;-59
2022/07/22 00:33:10;;;;;;;11.60;3.90;;;26.70;62.40;;;;;;5024912;28;20029;-60
2022/07/22 00:35:36;;;;;;;7.55;3.33;;;26.70;62.50;;;;;;5022729;28;20033;-60
2022/07/22 00:38:01;;;;;;;6.22;3.38;;;26.70;62.50;;;;;;5023491;28;20282;-59
2022/07/22 00:40:27;;;;;;;5.10;3.35;;;26.60;62.50;;;;;;5023820;28;20111;-59
2022/07/22 00:42:52;;;;;;;8.25;3.53;;;26.60;62.50;;;;;;5023557;28;20496;-60
2022/07/22 00:45:18;;;;;;;7.63;3.47;;;26.60;62.60;;;;;;5024523;28;20021;-60
2022/07/22 00:47:44;;;;;;;5.15;3.50;;;26.60;62.60;;;;;;5022382;28;20045;-60
2022/07/22 00:50:09;;;;;;;7.28;3.80;;;26.50;62.70;;;;;;5021883;28;20422;-60
2022/07/22 00:52:35;;;;;;;5.65;3.83;;;26.50;62.90;;;;;;5023067;28;20095;-59
2022/07/22 00:55:00;;;;;;;7.40;3.65;;;26.50;62.90;;;;;;5023681;28;20033;-61
2022/07/22 00:57:26;;;;;;;6.55;3.45;;;26.40;63.00;;;;;;5021654;28;20030;-60
2022/07/22 00:59:52;;;;;;;7.22;3.60;;;26.50;63.10;;;;;;5022011;28;20033;-60
2022/07/22 01:02:17;;;;;;;7.38;3.70;;;26.40;63.00;;;;;;5021250;28;20064;-60
2022/07/22 01:04:43;;;;;;;4.72;3.20;;;26.40;63.10;;;;;;5022521;28;20091;-60
2022/07/22 01:07:08;;;;;;;6.88;3.50;;;26.40;63.20;;;;;;5023475;28;20512;-60
2022/07/22 01:09:34;;;;;;;5.93;3.45;;;26.30;63.20;;;;;;5023994;28;20033;-59
2022/07/22 01:12:00;;;;;;;4.32;3.55;;;26.30;63.20;;;;;;5023093;28;20061;-60
2022/07/22 01:14:26;;;;;;;4.93;3.60;;;26.30;63.30;;;;;;5021212;28;20500;-59
2022/07/22 01:16:51;;;;;;;3.85;3.05;;;26.30;63.20;;;;;;5022102;28;20360;-59
2022/07/22 01:19:17;;;;;;;5.57;3.58;;;26.30;63.30;;;;;;5023180;28;20045;-60
2022/07/22 01:21:42;;;;;;;4.30;3.47;;;26.20;63.40;;;;;;5022317;28;20040;-60
2022/07/22 01:24:08;;;;;;;6.88;3.20;;;26.20;63.40;;;;;;5024484;28;20025;-60
2022/07/22 01:26:33;;;;;;;7.07;3.67;;;26.10;63.40;;;;;;5021959;28;20029;-60
2022/07/22 01:28:59;;;;;;;8.60;3.78;;;26.10;63.60;;;;;;5020632;28;20539;-60
2022/07/22 01:31:25;;;;;;;3.83;3.45;;;26.10;63.70;;;;;;5021283;28;20392;-59
2022/07/22 01:33:50;;;;;;;4.38;3.13;;;26.10;63.70;;;;;;5023020;28;20051;-60
2022/07/22 01:36:16;;;;;;;5.13;3.30;;;26.00;63.80;;;;;;5023216;28;20124;-60
2022/07/22 01:38:41;;;;;;;4.30;3.50;;;26.00;63.80;;;;;;5023526;28;20096;-60
2022/07/22 01:41:07;;;;;;;5.82;3.40;;;26.00;63.90;;;;;;5022544;28;20037;-59
2022/07/22 01:43:33;;;;;;;6.05;3.38;;;25.90;63.70;;;;;;5020452;28;20425;-60
2022/07/22 01:45:58;;;;;;;5.68;2.92;;;26.00;63.80;;;;;;5023663;28;20034;-60
2022/07/22 01:48:24;;;;;;;4.38;3.47;;;26.00;63.80;;;;;;5021489;28;20029;-60
2022/07/22 01:50:50;;;;;;;5.80;3.30;;;25.90;63.80;;;;;;5021835;28;20041;-60
2022/07/22 01:53:15;;;;;;;4.03;2.97;;;25.90;63.90;;;;;;5020429;28;20502;-59
2022/07/22 01:55:41;;;;;;;7.03;2.92;;;25.90;63.90;;;;;;5020424;28;20030;-60
2022/07/22 01:58:07;;;;;;;5.45;2.97;;;25.90;63.90;;;;;;5020850;28;20038;-60
2022/07/22 02:00:32;;;;;;;4.07;3.03;;;25.90;64.00;;;;;;5021968;28;20033;-59
2022/07/22 02:02:58;;;;;;;4.53;3.20;;;25.80;64.10;;;;;;5024012;28;20033;-60
2022/07/22 02:05:24;;;;;;;6.28;3.60;;;25.80;64.10;;;;;;5005733;28;20079;-59
2022/07/22 02:07:49;;;;;;;6.13;3.20;;;25.80;64.30;;;;;;5002647;28;20083;-59
2022/07/22 02:10:15;;;;;;;3.70;3.00;;;25.80;64.40;;;;;;5021294;28;20044;-59
2022/07/22 02:12:40;;;;;;;7.07;3.70;;;25.70;64.30;;;;;;5022331;28;20036;-60
2022/07/22 02:15:06;;;;;;;4.82;3.20;;;25.70;64.50;;;;;;5022025;28;20040;-60
2022/07/22 02:17:35;;;;;;;4.28;3.05;;;25.70;64.50;;;;;;5004780;28;20076;-59
2022/07/22 02:20:01;;;;;;;8.68;3.42;;;25.70;64.50;;;;;;5004546;28;20072;-60
2022/07/22 02:22:26;;;;;;;7.60;3.58;;;25.60;64.50;;;;;;5021930;28;20053;-60
2022/07/22 02:24:52;;;;;;;7.75;3.30;;;25.60;64.50;;;;;;5021313;28;20439;-60
2022/07/22 02:27:17;;;;;;;6.55;3.33;;;25.60;64.50;;;;;;5021297;28;20056;-60
2022/07/22 02:29:43;;;;;;;4.53;3.30;;;25.60;64.60;;;;;;5022139;28;20636;-59
2022/07/22 02:32:08;;;;;;;3.95;3.30;;;25.60;64.80;;;;;;5021420;28;20037;-59
2022/07/22 02:34:34;;;;;;;5.13;3.20;;;25.50;64.70;;;;;;5021731;28;20127;-60
2022/07/22 02:36:59;;;;;;;6.10;3.45;;;25.50;64.90;;;;;;5021021;28;20084;-60
2022/07/22 02:39:25;;;;;;;4.30;3.05;;;25.50;64.90;;;;;;5021950;28;20552;-60
2022/07/22 02:41:50;;;;;;;5.13;3.20;;;25.50;65.00;;;;;;5020829;28;20037;-60
2022/07/22 02:44:16;;;;;;;4.63;3.47;;;25.40;65.00;;;;;;5021642;28;20025;-60
2022/07/22 02:46:41;;;;;;;4.22;3.17;;;25.40;65.00;;;;;;5021264;28;20030;-60
2022/07/22 02:49:07;;;;;;;4.40;3.30;;;25.40;65.00;;;;;;5020567;28;20438;-59
2022/07/22 02:51:32;;;;;;;3.88;3.20;;;25.40;65.00;;;;;;5021717;28;20150;-60
2022/07/22 02:53:58;;;;;;;5.10;3.00;;;25.40;65.10;;;;;;5021466;28;20050;-59
2022/07/22 02:56:23;;;;;;;4.03;3.03;;;25.30;65.10;;;;;;5021771;28;20037;-60
2022/07/22 02:58:51;;;;;;;3.55;3.03;;;25.30;65.00;;;;;;5022171;28;20029;-59
2022/07/22 03:01:17;;;;;;;5.75;3.42;;;25.30;65.10;;;;;;5020924;28;20128;-59
2022/07/22 03:03:43;;;;;;;4.40;3.33;;;25.30;65.30;;;;;;5008337;28;20167;-59
2022/07/22 03:06:08;;;;;;;4.03;2.83;;;25.20;65.30;;;;;;5023315;28;20040;-60
2022/07/22 03:08:34;;;;;;;4.45;3.25;;;25.20;65.40;;;;;;5025789;28;20053;-59
2022/07/22 03:11:00;;;;;;;4.63;2.92;;;25.20;65.40;;;;;;5024914;28;20622;-60
2022/07/22 03:13:25;;;;;;;3.83;2.92;;;25.20;65.50;;;;;;4989618;28;20029;-60
2022/07/22 03:15:51;;;;;;;4.43;3.05;;;25.10;65.50;;;;;;5024252;28;20053;-60
2022/07/22 03:18:16;;;;;;;3.83;3.17;;;25.10;65.50;;;;;;5024413;28;20041;-60
2022/07/22 03:20:42;;;;;;;3.88;3.08;;;25.10;65.50;;;;;;5024456;28;20064;-59
2022/07/22 03:23:07;;;;;;;3.53;3.13;;;25.10;65.60;;;;;;5026448;28;20552;-59
2022/07/22 03:25:34;;;;;;;4.43;3.63;;;25.10;65.60;;;;;;5007676;28;20025;-60
2022/07/22 03:27:59;;;;;;;5.35;3.50;;;25.10;65.60;;;;;;5025184;28;20025;-60
2022/07/22 03:30:25;;;;;;;5.40;4.07;;;25.10;65.70;;;;;;5028377;28;20077;-60
2022/07/22 03:32:50;;;;;;;6.60;3.60;;;25.10;66.40;;;;;;5025624;28;20018;-60
2022/07/22 03:35:16;;;;;;;7.05;3.95;;;25.00;65.70;;;;;;5026259;28;20055;-60
2022/07/22 03:37:41;;;;;;;6.43;4.13;;;25.00;65.80;;;;;;5027022;28;20125;-59
2022/07/22 03:40:08;;;;;;;5.03;3.70;;;25.00;65.80;;;;;;5028171;28;20116;-60
2022/07/22 03:42:33;;;;;;;4.35;3.50;;;24.90;65.90;;;;;;5027020;28;20149;-59
2022/07/22 03:44:59;;;;;;;10.93;4.22;;;25.00;66.00;;;;;;5027559;28;20037;-60
2022/07/22 03:47:24;;;;;;;7.88;4.55;;;24.90;66.10;;;;;;5023503;28;20040;-59
2022/07/22 03:49:50;;;;;;;6.40;4.32;;;24.90;66.20;;;;;;5023110;28;20068;-60
2022/07/22 03:52:16;;;;;;;6.22;4.50;;;24.90;66.30;;;;;;5006045;28;20169;-60
2022/07/22 03:54:42;;;;;;;6.43;4.38;;;24.80;66.30;;;;;;5025461;28;20037;-60
2022/07/22 03:57:07;;;;;;;5.65;3.92;;;24.80;66.40;;;;;;5024892;28;20030;-60
2022/07/22 03:59:33;;;;;;;11.40;4.50;;;24.80;66.40;;;;;;5023224;28;20033;-59
2022/07/22 04:01:58;;;;;;;5.55;4.00;;;24.80;66.50;;;;;;5025518;28;20041;-60
2022/07/22 04:04:24;;;;;;;4.45;4.05;;;24.70;66.50;;;;;;5006529;28;20021;-60
2022/07/22 04:06:51;;;;;;;8.02;4.18;;;24.70;66.60;;;;;;5025578;28;20378;-60
2022/07/22 04:09:16;;;;;;;6.60;4.50;;;24.80;66.60;;;;;;5024104;28;20033;-60
2022/07/22 04:11:42;;;;;;;4.80;4.30;;;24.80;66.50;;;;;;5022977;28;20026;-59
2022/07/22 04:14:07;;;;;;;5.10;4.45;;;24.80;66.50;;;;;;5021831;28;20478;-61
2022/07/22 04:16:34;;;;;;;5.97;4.50;;;24.70;66.50;;;;;;5022940;28;20568;-60
2022/07/22 04:19:00;;;;;;;22.30;6.38;;;24.70;66.60;;;;;;5023933;28;20041;-59
2022/07/22 04:21:26;;;;;;;36.90;6.85;;;24.70;66.60;;;;;;5006546;28;20400;-60
2022/07/22 04:23:52;;;;;;;26.08;6.70;;;24.60;66.60;;;;;;5022251;28;20018;-59
2022/07/22 04:26:18;;;;;;;23.42;6.68;;;24.60;66.70;;;;;;5022878;28;20562;-60
2022/07/22 04:28:43;;;;;;;29.95;6.15;;;24.60;66.90;;;;;;5024211;28;20034;-59
2022/07/22 04:31:09;;;;;;;15.55;6.30;;;24.60;67.00;;;;;;5023899;28;20034;-60
2022/07/22 04:33:34;;;;;;;13.23;5.57;;;24.60;66.90;;;;;;5022858;28;20413;-60
2022/07/22 04:36:00;;;;;;;19.58;5.68;;;24.60;66.80;;;;;;5023239;28;20543;-59
2022/07/22 04:38:25;;;;;;;18.60;5.70;;;24.60;66.90;;;;;;5025945;28;20061;-60
2022/07/22 04:40:51;;;;;;;11.60;5.30;;;24.60;66.90;;;;;;5006761;28;20037;-60
2022/07/22 04:43:16;;;;;;;11.18;4.97;;;24.60;67.00;;;;;;5024749;28;20145;-60
2022/07/22 04:45:42;;;;;;;15.00;5.75;;;24.50;67.00;;;;;;5023396;28;20026;-60
2022/07/22 04:48:07;;;;;;;16.30;5.10;;;24.50;67.10;;;;;;5021222;28;20033;-60
2022/07/22 04:50:36;;;;;;;21.05;5.50;;;24.50;67.20;;;;;;5023301;28;20439;-60
2022/07/22 04:53:01;;;;;;;7.97;4.75;;;24.50;67.30;;;;;;5022287;28;20523;-60
2022/07/22 04:55:27;;;;;;;15.77;5.32;;;24.50;67.30;;;;;;5023481;28;20042;-59
2022/07/22 04:57:52;;;;;;;11.38;5.15;;;24.50;67.40;;;;;;5023278;28;20052;-60
2022/07/22 05:00:18;;;;;;;13.40;4.97;;;24.50;67.50;;;;;;5023749;28;20036;-60
2022/07/22 05:02:43;;;;;;;11.95;5.70;;;24.50;67.50;;;;;;5022266;28;20029;-60
2022/07/22 05:05:09;;;;;;;12.98;5.05;;;24.40;67.50;;;;;;5024058;28;20120;-60
2022/07/22 05:07:34;;;;;;;9.02;4.90;;;24.40;67.60;;;;;;5022313;28;20033;-60
2022/07/22 05:10:00;;;;;;;11.15;4.78;;;24.50;67.70;;;;;;5021725;28;20513;-60
2022/07/22 05:12:25;;;;;;;13.65;4.50;;;24.40;67.80;;;;;;5022563;28;20037;-59
2022/07/22 05:14:51;;;;;;;11.02;5.05;;;24.40;67.90;;;;;;5024621;28;20112;-60
2022/07/22 05:17:16;;;;;;;11.75;5.43;;;24.40;68.00;;;;;;5024046;28;20136;-60
2022/07/22 05:19:42;;;;;;;11.82;5.60;;;24.40;68.40;;;;;;5023189;28;20033;-60
2022/07/22 05:22:08;;;;;;;10.35;5.03;;;24.30;68.40;;;;;;5024126;28;20041;-60
2022/07/22 05:24:33;;;;;;;6.90;4.30;;;24.40;68.80;;;;;;5006483;28;20022;-60
2022/07/22 05:26:59;;;;;;;8.07;4.90;;;24.30;68.80;;;;;;5021208;28;20083;-60
2022/07/22 05:29:24;;;;;;;11.25;5.10;;;24.30;68.90;;;;;;5021447;28;20207;-62
2022/07/22 05:31:50;;;;;;;9.13;4.47;;;24.30;69.10;;;;;;5021015;28;20120;-59
2022/07/22 05:34:15;;;;;;;11.75;4.70;;;24.30;69.10;;;;;;5022645;28;20026;-60
2022/07/22 05:36:41;;;;;;;11.10;5.22;;;24.30;69.00;;;;;;5021835;28;20158;-61
2022/07/22 05:39:06;;;;;;;10.18;5.05;;;24.30;69.10;;;;;;5022578;28;20439;-59
2022/07/22 05:41:32;;;;;;;10.25;5.07;;;24.30;69.20;;;;;;5022939;28;20072;-60
2022/07/22 05:43:57;;;;;;;7.03;5.20;;;24.30;69.40;;;;;;5016924;28;20025;-60
2022/07/22 05:46:23;;;;;;;8.02;5.00;;;24.30;69.60;;;;;;5015798;28;20385;-60
2022/07/22 05:48:48;;;;;;;13.70;5.80;;;24.30;69.60;;;;;;5013432;28;20650;-60
2022/07/22 05:51:14;;;;;;;11.15;5.10;;;24.30;69.70;;;;;;5015375;28;20036;-60
2022/07/22 05:53:41;;;;;;;7.15;4.85;;;24.20;69.70;;;;;;5017514;28;20100;-60
2022/07/22 05:56:07;;;;;;;9.98;5.40;;;24.20;69.70;;;;;;5017847;28;20044;-59
2022/07/22 05:58:32;;;;;;;8.18;5.20;;;24.20;69.90;;;;;;5015287;28;20064;-60
2022/07/22 06:00:58;;;;;;;7.10;4.88;;;24.20;70.10;;;;;;5016607;28;20057;-61
2022/07/22 06:03:24;;;;;;;6.28;5.00;;;24.20;70.20;;;;;;5000806;28;20037;-60
2022/07/22 06:05:49;;;;;;;7.93;5.63;;;24.20;70.40;;;;;;5016178;28;20134;-61
2022/07/22 06:08:15;;;;;;;8.38;5.70;;;24.20;70.80;;;;;;5016260;28;20037;-60
2022/07/22 06:10:40;;;;;;;7.47;6.03;;;24.20;71.10;;;;;;5018832;28;20037;-60
2022/07/22 06:13:06;;;;;;;10.48;6.03;;;24.20;71.40;;;;;;4983461;28;20048;-61
2022/07/22 06:15:31;;;;;;;8.18;6.10;;;24.20;71.70;;;;;;5014631;28;20145;-60
2022/07/22 06:17:57;;;;;;;11.98;5.95;;;24.10;71.60;;;;;;5010729;28;20073;-60
2022/07/22 06:20:22;;;;;;;6.93;5.32;;;24.10;72.00;;;;;;5016245;28;20139;-60
2022/07/22 06:22:48;;;;;;;7.40;6.10;;;24.10;72.00;;;;;;4999863;28;20105;-61
2022/07/22 06:25:13;;;;;;;8.98;5.95;;;24.10;72.20;;;;;;5015880;28;20156;-60
2022/07/22 06:27:39;;;;;;;10.93;6.55;;;24.10;72.20;;;;;;5016721;28;20033;-61
2022/07/22 06:30:05;;;;;;;8.35;6.03;;;24.10;72.30;;;;;;5014747;28;20041;-61
2022/07/22 06:32:30;;;;;;;12.00;6.43;;;24.10;72.60;;;;;;5017358;28;20037;-62
2022/07/22 06:34:56;;;;;;;14.20;6.80;;;24.10;72.70;;;;;;5017888;28;20132;-61
2022/07/22 06:37:21;;;;;;;8.65;6.22;;;24.10;72.80;;;;;;5018126;28;20056;-61
2022/07/22 06:39:47;;;;;;;11.98;6.45;;;24.10;73.60;;;;;;5001931;28;21088;-61
2022/07/22 06:42:13;;;;;;;14.35;6.78;;;24.10;73.90;;;;;;5019816;28;20036;-61
2022/07/22 06:44:39;;;;;;;7.68;6.65;;;24.00;73.90;;;;;;5019754;28;20025;-62
2022/07/22 06:47:04;;;;;;;9.25;6.63;;;24.00;74.20;;;;;;5020053;28;20108;-61
2022/07/22 06:49:30;;;;;;;19.08;7.15;;;24.00;74.50;;;;;;5021034;28;20031;-61
2022/07/22 06:51:56;;;;;;;19.85;7.43;;;24.00;74.70;;;;;;5022148;28;20052;-61
2022/07/22 06:54:21;;;;;;;13.05;7.13;;;24.00;74.80;;;;;;5023201;28;20377;-59
2022/07/22 06:56:47;;;;;;;11.85;7.95;;;24.00;74.90;;;;;;5019851;28;20578;-58
2022/07/22 06:59:12;;;;;;;15.85;8.20;;;24.00;75.00;;;;;;5017889;28;20047;-59
2022/07/22 07:01:38;;;;;;;19.58;8.63;;;24.00;75.60;;;;;;5018995;28;20053;-59
2022/07/22 07:04:03;;;;;;;18.17;7.80;;;24.00;75.90;;;;;;5020824;28;20041;-61
2022/07/22 07:06:29;;;;;;;15.13;8.05;;;24.00;76.20;;;;;;5002850;28;20062;-60
2022/07/22 07:08:55;;;;;;;11.32;7.53;;;24.00;76.30;;;;;;5015534;28;20089;-60
2022/07/22 07:11:20;;;;;;;18.92;7.47;;;24.00;76.70;;;;;;5019884;28;20068;-61
2022/07/22 07:13:45;;;;;;;16.13;7.60;;;24.00;77.10;;;;;;5018002;28;20642;-61
2022/07/22 07:16:11;;;;;;;17.42;8.18;;;24.00;76.80;;;;;;5020328;28;20115;-60
2022/07/22 07:18:37;;;;;;;16.80;7.95;;;24.00;77.10;;;;;;5001009;28;20042;-61
2022/07/22 07:21:04;;;;;;;17.20;7.68;;;24.00;76.90;;;;;;5019769;28;20084;-60
2022/07/22 07:23:29;;;;;;;19.83;8.48;;;24.00;76.50;;;;;;5012439;28;20051;-60
2022/07/22 07:25:55;;;;;;;17.70;8.25;;;24.00;77.00;;;;;;5010692;28;20433;-60
2022/07/22 07:28:20;;;;;;;16.73;8.73;;;24.00;77.20;;;;;;5012371;28;20026;-60
2022/07/22 07:30:46;;;;;;;22.65;8.90;;;24.10;77.50;;;;;;5016281;28;20119;-60
2022/07/22 07:33:12;;;;;;;17.50;9.50;;;24.00;77.70;;;;;;5018804;28;20024;-63
2022/07/22 07:35:37;;;;;;;23.85;9.50;;;24.00;77.90;;;;;;5002288;28;20400;-61
2022/07/22 07:38:03;;;;;;;19.42;9.13;;;24.10;78.30;;;;;;4999799;28;21603;-60
2022/07/22 07:40:28;;;;;;;20.67;9.30;;;24.10;78.50;;;;;;5018976;28;20485;-60
2022/07/22 07:42:54;;;;;;;29.10;10.23;;;24.10;78.40;;;;;;5023406;28;20021;-60
2022/07/22 07:45:19;;;;;;;31.55;10.60;;;24.10;78.40;;;;;;5022427;28;20063;-60
2022/07/22 07:47:45;;;;;;;30.15;10.02;;;24.10;78.70;;;;;;5018753;28;20041;-61
2022/07/22 07:50:11;;;;;;;29.60;9.77;;;24.10;78.20;;;;;;5021649;28;20033;-60
2022/07/22 07:52:40;;;;;;;32.13;11.07;;;24.20;78.40;;;;;;5022562;28;20031;-61
2022/07/22 07:55:06;;;;;;;38.65;10.77;;;24.20;78.70;;;;;;5021987;28;20061;-60
2022/07/22 07:57:32;;;;;;;48.70;11.55;;;24.30;78.60;;;;;;5019874;28;20052;-62
2022/07/22 07:59:57;;;;;;;35.03;11.35;;;24.30;79.30;;;;;;5014922;28;20337;-61
2022/07/22 08:02:23;;;;;;;48.90;11.93;;;24.30;79.00;;;;;;5018178;28;20112;-62
2022/07/22 08:04:48;;;;;;;28.50;10.57;;;24.30;79.20;;;;;;5003128;28;20056;-61
2022/07/22 08:07:14;;;;;;;83.50;14.88;;;24.30;79.20;;;;;;5001024;28;21348;-60
2022/07/22 08:09:39;;;;;;;54.60;12.90;;;24.30;79.00;;;;;;5018786;28;20034;-60
2022/07/22 08:12:05;;;;;;;48.92;13.13;;;24.40;79.30;;;;;;5008055;28;20033;-60
2022/07/22 08:14:31;;;;;;;54.53;11.85;;;24.40;79.50;;;;;;5018462;28;20125;-60
2022/07/22 08:16:56;;;;;;;49.58;12.95;;;24.40;79.40;;;;;;5011647;28;20099;-60
2022/07/22 08:19:22;;;;;;;52.60;12.88;;;24.40;79.80;;;;;;5018836;28;20550;-60
2022/07/22 08:21:47;;;;;;;44.47;12.65;;;24.40;79.90;;;;;;5012460;28;20032;-60
2022/07/22 08:24:13;;;;;;;50.08;13.35;;;24.40;80.00;;;;;;5015161;28;20032;-61
2022/07/22 08:26:39;;;;;;;56.13;13.80;;;24.50;80.10;;;;;;4993588;28;20044;-61
2022/07/22 08:29:05;;;;;;;51.25;13.15;;;24.50;80.30;;;;;;5009250;28;20017;-61
2022/07/22 08:31:34;;;;;;;67.32;13.93;;;24.60;80.30;;;;;;5010836;28;20167;-61
2022/07/22 08:34:00;;;;;;;45.30;13.18;;;24.60;80.20;;;;;;5011985;28;21855;-61
2022/07/22 08:36:26;;;;;;;49.58;13.20;;;24.60;79.90;;;;;;5012865;28;20065;-60
2022/07/22 08:38:51;;;;;;;54.60;13.32;;;24.70;80.00;;;;;;5014883;28;20100;-61
2022/07/22 08:41:17;;;;;;;37.80;13.30;;;24.70;80.30;;;;;;5013570;28;20744;-61
2022/07/22 08:43:44;;;;;;;55.47;14.73;;;24.70;80.30;;;;;;5000094;28;20021;-61
2022/07/22 08:46:09;;;;;;;56.50;15.32;;;24.70;80.40;;;;;;5010100;28;20075;-60
2022/07/22 08:48:38;;;;;;;66.18;14.20;;;24.80;80.30;;;;;;5016143;28;20627;-61
2022/07/22 08:51:04;;;;;;;59.17;13.70;;;24.80;80.10;;;;;;5013159;28;20040;-59
2022/07/22 08:53:29;;;;;;;61.40;14.63;;;24.90;80.00;;;;;;5007858;28;20373;-59
2022/07/22 08:55:55;;;;;;;61.17;13.52;;;24.90;80.00;;;;;;5006432;28;20077;-60
2022/07/22 08:58:20;;;;;;;78.38;15.48;;;24.90;79.50;;;;;;4990696;28;20038;-60
2022/07/22 09:00:46;;;;;;;76.53;15.88;;;25.00;79.70;;;;;;4999784;28;20037;-60
2022/07/22 09:03:22;;;;;;;92.43;16.63;;;25.00;79.70;;;;;;5000690;28;20472;-60
2022/07/22 09:05:51;;;;;;;104.63;17.83;;;25.00;79.80;;;;;;5005764;28;20044;-61
2022/07/22 09:08:17;;;;;;;80.95;17.27;;;25.00;79.60;;;;;;5009179;28;20075;-60
2022/07/22 09:10:42;;;;;;;62.13;14.90;;;25.10;79.90;;;;;;4991442;28;20021;-60
2022/07/22 09:13:08;;;;;;;71.50;16.42;;;25.10;80.00;;;;;;5007867;28;20033;-59
2022/07/22 09:15:36;;;;;;;59.17;16.23;;;25.10;80.50;;;;;;4997282;28;20634;-61
2022/07/22 09:18:02;;;;;;;60.42;15.50;;;25.10;79.90;;;;;;5019685;28;20038;-60
2022/07/22 09:20:28;;;;;;;70.72;16.20;;;25.20;79.80;;;;;;5005716;28;20044;-61
2022/07/22 09:22:53;;;;;;;59.78;15.48;;;25.20;79.40;;;;;;5003803;28;20029;-61
2022/07/22 09:25:35;;;;;;;65.93;15.40;;;25.30;79.30;;;;;;5005584;28;20037;-60
2022/07/22 09:28:07;;;;;;;75.78;16.38;;;25.30;79.10;;;;;;5002874;28;20029;-61
2022/07/22 09:30:42;;;;;;;78.05;17.40;;;25.30;79.80;;;;;;5009427;28;20123;-60
2022/07/22 09:33:08;;;;;;;78.45;16.25;;;25.30;79.20;;;;;;4989504;28;20146;-61
2022/07/22 09:35:33;;;;;;;73.65;15.77;;;25.40;79.20;;;;;;5005398;28;20034;-60
2022/07/22 09:38:03;;;;;;;68.82;14.85;;;25.30;79.00;;;;;;5001680;28;20064;-60
2022/07/22 09:40:38;;;;;;;78.45;17.00;;;25.40;79.20;;;;;;5005296;28;20131;-61
2022/07/22 09:43:05;;;;;;;75.72;16.77;;;25.50;79.60;;;;;;5002802;28;20045;-60
2022/07/22 09:45:31;;;;;;;90.00;16.83;;;25.50;79.80;;;;;;5002204;28;20056;-60
2022/07/22 09:47:58;;;;;;;80.35;17.48;;;25.50;79.70;;;;;;5008894;28;20029;-61
2022/07/22 09:50:25;;;;;;;94.70;18.02;;;25.60;79.10;;;;;;5007411;28;20026;-61
2022/07/22 09:52:51;;;;;;;87.55;17.33;;;25.60;78.90;;;;;;4999748;28;20128;-60
2022/07/22 09:55:18;;;;;;;78.03;16.50;;;25.60;79.50;;;;;;5011219;28;20496;-60
2022/07/22 09:57:44;;;;;;;76.07;16.55;;;25.60;78.70;;;;;;5014360;28;20033;-61
2022/07/22 10:00:10;;;;;;;83.93;17.38;;;25.70;78.90;;;;;;5000572;28;20037;-60
2022/07/22 10:02:58;;;;;;;84.45;17.17;;;25.70;78.90;;;;;;5006434;28;20512;-60
2022/07/22 10:05:25;;;;;;;72.22;17.15;;;25.70;78.60;;;;;;4977417;28;20040;-61
2022/07/22 10:07:51;;;;;;;75.13;16.48;;;25.70;78.30;;;;;;4988751;28;20060;-61
2022/07/22 10:10:22;;;;;;;77.30;16.50;;;25.80;78.60;;;;;;5006683;28;20057;-60
2022/07/22 10:12:49;;;;;;;80.68;16.15;;;25.80;78.60;;;;;;4995817;28;20455;-59
2022/07/22 10:15:14;;;;;;;82.47;16.75;;;25.90;78.50;;;;;;5012376;28;20354;-61
2022/07/22 10:17:48;;;;;;;81.35;17.23;;;26.00;78.50;;;;;;5010679;28;20056;-61
2022/07/22 10:20:15;;;;;;;105.97;19.13;;;26.00;78.50;;;;;;5015140;28;20048;-60
2022/07/22 10:22:41;;;;;;;151.05;25.25;;;26.10;78.40;;;;;;4996365;28;20028;-61
2022/07/22 10:25:10;;;;;;;94.40;18.85;;;26.10;77.90;;;;;;5006171;28;20034;-60
2022/07/22 10:27:48;;;;;;;99.07;18.83;;;26.20;77.80;;;;;;4989047;28;20033;-61
2022/07/22 10:30:15;;;;;;;102.63;17.83;;;26.20;77.50;;;;;;5018603;28;20524;-60
2022/07/22 10:32:41;;;;;;;90.70;17.23;;;26.30;78.10;;;;;;5012671;28;20590;-61
2022/07/22 10:35:06;;;;;;;66.70;16.48;;;26.30;77.40;;;;;;4995999;28;20025;-60
2022/07/22 10:37:40;;;;;;;74.25;16.70;;;26.40;77.00;;;;;;5003546;28;20034;-60
2022/07/22 10:40:15;;;;;;;92.88;18.20;;;26.40;76.90;;;;;;5009619;28;20029;-60
2022/07/22 10:43:03;;;;;;;107.10;17.77;;;26.40;76.70;;;;;;5012642;28;20092;-59
2022/07/22 10:45:31;;;;;;;75.43;16.75;;;26.50;76.50;;;;;;5009298;28;20029;-60
2022/07/22 10:48:00;;;;;;;74.50;15.57;;;26.50;76.20;;;;;;5010372;28;20041;-60
2022/07/22 10:50:35;;;;;;;67.10;16.30;;;26.50;76.10;;;;;;5007145;28;20025;-60
2022/07/22 10:53:01;;;;;;;100.33;17.70;;;26.60;76.20;;;;;;5011800;28;22042;-60
2022/07/22 10:55:27;;;;;;;94.03;16.60;;;26.60;76.00;;;;;;5013139;28;20029;-60
2022/07/22 10:57:52;;;;;;;61.05;16.95;;;26.70;75.80;;;;;;5013609;28;20037;-61
2022/07/22 11:00:18;;;;;;;86.38;16.27;;;26.80;75.50;;;;;;5011819;28;20120;-60
2022/07/22 11:02:43;;;;;;;70.72;15.10;;;26.90;75.20;;;;;;5012415;28;21352;-61
2022/07/22 11:05:09;;;;;;;64.07;15.70;;;26.90;74.80;;;;;;4997777;28;20431;-59
2022/07/22 11:07:41;;;;;;;53.35;15.50;;;27.00;74.30;;;;;;5007758;28;20018;-59
2022/07/22 11:10:18;;;;;;;61.97;15.32;;;27.10;74.20;;;;;;5013976;28;20040;-61
2022/07/22 11:12:44;;;;;;;52.85;15.27;;;27.20;73.90;;;;;;5009246;28;20126;-61
2022/07/22 11:15:10;;;;;;;54.72;13.73;;;27.30;73.50;;;;;;5009127;28;20021;-60
2022/07/22 11:17:36;;;;;;;46.25;14.25;;;27.40;73.30;;;;;;5014344;28;20049;-61
2022/07/22 11:20:03;;;;;;;43.58;12.50;;;27.50;73.00;;;;;;5009824;28;20056;-60
2022/07/22 11:22:29;;;;;;;46.78;13.23;;;27.50;72.60;;;;;;5005247;28;20026;-60
2022/07/22 11:24:54;;;;;;;40.30;12.73;;;27.70;72.20;;;;;;5007089;28;20115;-61
2022/07/22 11:27:23;;;;;;;43.03;12.57;;;27.80;71.80;;;;;;5012710;28;20091;-60
2022/07/22 11:29:50;;;;;;;45.17;11.75;;;27.90;71.70;;;;;;5002846;28;20434;-60
2022/07/22 11:32:16;;;;;;;43.90;12.23;;;28.00;71.30;;;;;;5016238;28;20164;-61
2022/07/22 11:34:46;;;;;;;52.28;12.50;;;28.00;70.80;;;;;;5015979;28;20041;-60
2022/07/22 11:37:16;;;;;;;38.10;11.45;;;28.20;70.60;;;;;;5014075;28;20393;-60
2022/07/22 11:39:41;;;;;;;22.85;11.43;;;28.30;70.10;;;;;;5017218;28;20434;-61
2022/07/22 11:42:07;;;;;;;32.17;10.85;;;28.40;69.70;;;;;;5012157;28;20480;-61
2022/07/22 11:44:34;;;;;;;28.30;11.60;;;28.50;69.40;;;;;;5018466;28;20131;-60
2022/07/22 11:47:00;;;;;;;28.70;10.43;;;28.60;69.10;;;;;;5018248;28;20673;-61
2022/07/22 11:49:28;;;;;;;26.02;10.98;;;28.70;68.60;;;;;;5016503;28;20036;-61
2022/07/22 11:51:53;;;;;;;30.60;10.75;;;28.80;68.40;;;;;;5001381;28;20033;-61
2022/07/22 11:54:19;;;;;;;22.40;9.55;;;28.90;68.50;;;;;;5015577;28;20029;-61
2022/07/22 11:56:45;;;;;;;24.15;10.95;;;29.00;68.50;;;;;;5000605;28;20091;-60
2022/07/22 11:59:15;;;;;;;28.33;10.10;;;29.00;67.80;;;;;;5015634;28;20504;-60
2022/07/22 12:01:41;;;;;;;26.35;10.40;;;29.10;67.60;;;;;;5019115;28;20014;-60
2022/07/22 12:04:08;;;;;;;27.73;10.38;;;29.20;67.10;;;;;;5016769;28;20032;-61
2022/07/22 12:06:38;;;;;;;29.75;10.68;;;29.20;67.10;;;;;;5000075;28;20444;-60
2022/07/22 12:09:15;;;;;;;17.38;9.95;;;29.30;66.50;;;;;;5018830;28;20040;-61
2022/07/22 12:11:42;;;;;;;24.20;9.93;;;29.40;65.80;;;;;;5020832;28;20017;-61
2022/07/22 12:14:13;;;;;;;20.33;9.50;;;29.50;65.20;;;;;;5017569;28;20038;-61
2022/07/22 12:16:39;;;;;;;14.60;8.45;;;29.60;64.70;;;;;;5020517;28;20103;-62
2022/07/22 12:19:09;;;;;;;19.35;8.95;;;29.70;65.20;;;;;;5018270;28;20029;-59
2022/07/22 12:21:51;;;;;;;21.20;9.52;;;29.70;64.80;;;;;;5018080;28;20033;-60
2022/07/22 12:24:24;;;;;;;25.20;9.43;;;29.80;64.40;;;;;;5010530;28;20034;-61
2022/07/22 12:26:50;;;;;;;18.10;9.23;;;29.90;63.20;;;;;;5001087;28;20041;-61
2022/07/22 12:29:35;;;;;;;19.35;8.70;;;30.00;63.80;;;;;;4998025;28;20055;-62
2022/07/22 12:32:02;;;;;;;16.15;8.73;;;30.10;63.60;;;;;;5017724;28;20026;-61
2022/07/22 12:34:30;;;;;;;17.98;8.68;;;30.20;63.00;;;;;;5017383;28;20266;-60